Time,TemperatureF,DewpointF,PressureIn,WindDirection,WindDirectionDegrees,WindSpeedMPH,WindSpeedGustMPH,Humidity,HourlyPrecipIn,Conditions,Clouds,dailyrainin,SoftwareType,DateUTC
2013-01-15 00:03:00,37.0,28.0,30.33,North,360,3.0,-999.0,69,-99.99,,,-99.99,,2013-01-15 05:03:00,
2013-01-15 00:12:00,37.0,28.0,30.32,North,10,5.0,-999.0,69,-99.99,,,-99.99,,2013-01-15 05:12:00,
2013-01-15 00:22:00,39.0,27.0,30.33,North,360,7.0,-999.0,60,-99.99,,,-99.99,,2013-01-15 05:22:00,
2013-01-15 00:33:00,39.0,27.0,30.35,NNW,340,6.0,-999.0,60,-99.99,,,-99.99,,2013-01-15 05:33:00,
2013-01-15 00:42:00,37.0,27.0,30.35,North,360,7.0,-999.0,64,-99.99,,,-99.99,,2013-01-15 05:42:00,
2013-01-15 00:52:00,37.0,27.0,30.34,North,350,5.0,-999.0,64,-99.99,,,-99.99,,2013-01-15 05:52:00,
2013-01-15 01:02:00,37.0,27.0,30.34,North,350,5.0,-999.0,64,-99.99,,,-99.99,,2013-01-15 06:02:00,
2013-01-15 01:12:00,37.0,27.0,30.33,North,10,6.0,-999.0,64,-99.99,,,-99.99,,2013-01-15 06:12:00,
2013-01-15 01:22:00,37.0,27.0,30.31,North,10,3.0,-999.0,64,-99.99,,,-99.99,,2013-01-15 06:22:00,
2013-01-15 01:33:00,37.0,28.0,30.29,NE,40,3.0,-999.0,69,-99.99,,,-99.99,,2013-01-15 06:33:00,
2013-01-15 01:42:00,37.0,28.0,30.29,NNE,20,3.0,-999.0,69,-99.99,,,-99.99,,2013-01-15 06:42:00,
2013-01-15 01:52:00,37.0,27.0,30.31,North,0,0.0,-999.0,64,-99.99,,,-99.99,,2013-01-15 06:52:00,
2013-01-15 02:02:00,37.0,27.0,30.31,North,0,0.0,-999.0,64,-99.99,,,-99.99,,2013-01-15 07:02:00,
2013-01-15 02:12:00,37.0,27.0,30.30,North,0,0.0,-999.0,64,-99.99,,,-99.99,,2013-01-15 07:12:00,
2013-01-15 02:22:00,37.0,27.0,30.31,North,0,0.0,-999.0,64,-99.99,,,-99.99,,2013-01-15 07:22:00,
2013-01-15 02:33:00,37.0,28.0,30.31,North,0,0.0,-999.0,69,-99.99,,,-99.99,,2013-01-15 07:33:00,
2013-01-15 02:42:00,37.0,28.0,30.29,NE,40,3.0,-999.0,69,-99.99,,,-99.99,,2013-01-15 07:42:00,
2013-01-15 02:52:00,37.0,28.0,30.29,North,10,5.0,-999.0,69,-99.99,,,-99.99,,2013-01-15 07:52:00,
2013-01-15 03:02:00,37.0,28.0,30.29,North,10,5.0,-999.0,69,-99.99,,,-99.99,,2013-01-15 08:02:00,
2013-01-15 03:12:00,37.0,28.0,30.28,NNE,20,3.0,-999.0,69,-99.99,,,-99.99,,2013-01-15 08:12:00,
2013-01-15 03:22:00,37.0,28.0,30.29,North,360,3.0,-999.0,69,-99.99,,,-99.99,,2013-01-15 08:22:00,
2013-01-15 03:33:00,37.0,28.0,30.29,North,360,3.0,-999.0,69,-99.99,,,-99.99,,2013-01-15 08:33:00,
2013-01-15 03:42:00,37.0,28.0,30.29,North,0,0.0,-999.0,69,-99.99,,,-99.99,,2013-01-15 08:42:00,
2013-01-15 03:52:00,36.0,28.0,30.30,North,0,0.0,-999.0,74,-99.99,,,-99.99,,2013-01-15 08:52:00,
2013-01-15 04:02:00,36.0,28.0,30.30,North,0,0.0,-999.0,74,-99.99,,,-99.99,,2013-01-15 09:02:00,
2013-01-15 04:12:00,36.0,28.0,30.29,North,0,0.0,-999.0,74,-99.99,,,-99.99,,2013-01-15 09:12:00,
2013-01-15 04:22:00,34.0,28.0,30.28,North,0,0.0,-999.0,80,-99.99,,,-99.99,,2013-01-15 09:22:00,
2013-01-15 04:33:00,34.0,28.0,30.28,North,0,0.0,-999.0,80,-99.99,,,-99.99,,2013-01-15 09:33:00,
2013-01-15 04:42:00,34.0,28.0,30.27,North,0,0.0,-999.0,80,-99.99,,,-99.99,,2013-01-15 09:42:00,
2013-01-15 04:52:00,34.0,28.0,30.27,North,0,0.0,-999.0,80,-99.99,,,-99.99,,2013-01-15 09:52:00,
2013-01-15 05:02:00,34.0,28.0,30.26,North,0,0.0,-999.0,80,-99.99,,,-99.99,,2013-01-15 10:02:00,
2013-01-15 05:12:00,30.0,28.0,30.27,North,0,0.0,-999.0,92,-99.99,,,-99.99,,2013-01-15 10:12:00,
2013-01-15 05:22:00,30.0,27.0,30.29,North,0,0.0,-999.0,86,-99.99,,,-99.99,,2013-01-15 10:22:00,
2013-01-15 05:32:00,30.0,28.0,30.29,North,0,0.0,-999.0,92,-99.99,,,-99.99,,2013-01-15 10:32:00,
2013-01-15 05:42:00,30.0,28.0,30.30,North,0,0.0,-999.0,92,-99.99,,,-99.99,,2013-01-15 10:42:00,
2013-01-15 05:52:00,30.0,28.0,30.31,North,0,0.0,-999.0,92,-99.99,,,-99.99,,2013-01-15 10:52:00,
2013-01-15 06:02:00,30.0,28.0,30.31,North,0,0.0,-999.0,92,-99.99,,,-99.99,,2013-01-15 11:02:00,
2013-01-15 06:12:00,30.0,27.0,30.31,North,0,0.0,-999.0,86,-99.99,,,-99.99,,2013-01-15 11:12:00,
2013-01-15 06:22:00,30.0,28.0,30.31,North,0,0.0,-999.0,92,-99.99,,,-99.99,,2013-01-15 11:22:00,
2013-01-15 06:33:00,30.0,27.0,30.32,North,0,0.0,-999.0,86,-99.99,,,-99.99,,2013-01-15 11:33:00,
2013-01-15 06:42:00,30.0,27.0,30.32,North,0,0.0,-999.0,86,-99.99,,,-99.99,,2013-01-15 11:42:00,
2013-01-15 06:52:00,30.0,27.0,30.32,North,0,0.0,-999.0,86,-99.99,,,-99.99,,2013-01-15 11:52:00,
2013-01-15 07:03:00,30.0,27.0,30.32,North,0,0.0,-999.0,86,-99.99,,,-99.99,,2013-01-15 12:03:00,
2013-01-15 07:12:00,30.0,27.0,30.32,North,0,0.0,-999.0,86,-99.99,,,-99.99,,2013-01-15 12:12:00,
2013-01-15 07:22:00,30.0,28.0,30.33,North,0,0.0,-999.0,92,-99.99,,,-99.99,,2013-01-15 12:22:00,
2013-01-15 07:33:00,30.0,27.0,30.33,North,0,0.0,-999.0,86,-99.99,,,-99.99,,2013-01-15 12:33:00,
2013-01-15 07:43:00,30.0,28.0,30.33,North,0,0.0,-999.0,92,-99.99,,,-99.99,,2013-01-15 12:43:00,
2013-01-15 07:53:00,30.0,28.0,30.34,North,0,0.0,-999.0,92,-99.99,,,-99.99,,2013-01-15 12:53:00,
2013-01-15 08:03:00,30.0,28.0,30.34,North,0,0.0,-999.0,92,-99.99,,,-99.99,,2013-01-15 13:03:00,
2013-01-15 08:12:00,32.0,28.0,30.34,North,0,0.0,-999.0,86,-99.99,,,-99.99,,2013-01-15 13:12:00,
2013-01-15 08:23:00,32.0,28.0,30.34,North,0,0.0,-999.0,86,-99.99,,,-99.99,,2013-01-15 13:23:00,
2013-01-15 08:33:00,32.0,28.0,30.34,North,0,0.0,-999.0,86,-99.99,,,-99.99,,2013-01-15 13:33:00,
2013-01-15 08:43:00,32.0,28.0,30.35,North,0,0.0,-999.0,86,-99.99,,,-99.99,,2013-01-15 13:43:00,
2013-01-15 08:53:00,32.0,30.0,30.36,North,0,0.0,-999.0,92,-99.99,,,-99.99,,2013-01-15 13:53:00,
2013-01-15 09:03:00,32.0,30.0,30.36,North,0,0.0,-999.0,92,-99.99,,,-99.99,,2013-01-15 14:03:00,
2013-01-15 09:12:00,34.0,30.0,30.37,North,0,0.0,-999.0,86,-99.99,,,-99.99,,2013-01-15 14:12:00,
2013-01-15 09:23:00,36.0,28.0,30.38,North,0,0.0,-999.0,74,-99.99,,,-99.99,,2013-01-15 14:23:00,
2013-01-15 09:33:00,36.0,28.0,30.38,North,0,0.0,-999.0,74,-99.99,,,-99.99,,2013-01-15 14:33:00,
2013-01-15 09:43:00,36.0,30.0,30.38,North,0,0.0,-999.0,80,-99.99,,,-99.99,,2013-01-15 14:43:00,
2013-01-15 09:53:00,37.0,28.0,30.38,North,0,0.0,-999.0,69,-99.99,,,-99.99,,2013-01-15 14:53:00,
2013-01-15 10:03:00,37.0,28.0,30.38,North,0,0.0,-999.0,69,-99.99,,,-99.99,,2013-01-15 15:03:00,
2013-01-15 10:12:00,37.0,28.0,30.37,North,0,0.0,-999.0,69,-99.99,,,-99.99,,2013-01-15 15:12:00,
2013-01-15 10:23:00,39.0,28.0,30.37,North,360,5.0,-999.0,64,-99.99,,,-99.99,,2013-01-15 15:23:00,
2013-01-15 10:33:00,39.0,28.0,30.36,North,360,6.0,-999.0,64,-99.99,,,-99.99,,2013-01-15 15:33:00,
2013-01-15 10:43:00,37.0,27.0,30.36,North,360,5.0,-999.0,64,-99.99,,,-99.99,,2013-01-15 15:43:00,
2013-01-15 10:53:00,39.0,28.0,30.35,NNE,20,6.0,-999.0,64,-99.99,,,-99.99,,2013-01-15 15:53:00,
2013-01-15 11:03:00,39.0,28.0,30.35,NNE,20,6.0,-999.0,64,-99.99,,,-99.99,,2013-01-15 16:03:00,
2013-01-15 11:12:00,39.0,28.0,30.35,North,10,3.0,-999.0,64,-99.99,,,-99.99,,2013-01-15 16:12:00,
2013-01-15 11:23:00,39.0,28.0,30.35,NW,320,3.0,-999.0,64,-99.99,,,-99.99,,2013-01-15 16:23:00,
2013-01-15 11:33:00,39.0,28.0,30.35,North,10,3.0,-999.0,64,-99.99,,,-99.99,,2013-01-15 16:33:00,
2013-01-15 11:42:00,39.0,28.0,30.34,North,360,3.0,-999.0,64,-99.99,,,-99.99,,2013-01-15 16:42:00,
2013-01-15 11:53:00,39.0,27.0,30.34,North,360,5.0,-999.0,60,-99.99,,,-99.99,,2013-01-15 16:53:00,
2013-01-15 12:03:00,39.0,27.0,30.34,North,360,5.0,-999.0,60,-99.99,,,-99.99,,2013-01-15 17:03:00,
2013-01-15 12:12:00,39.0,25.0,30.33,North,0,0.0,-999.0,55,-99.99,,,-99.99,,2013-01-15 17:12:00,
2013-01-15 12:22:00,39.0,27.0,30.33,North,360,5.0,-999.0,60,-99.99,,,-99.99,,2013-01-15 17:22:00,
2013-01-15 12:33:00,39.0,27.0,30.33,NW,310,7.0,-999.0,60,-99.99,,,-99.99,,2013-01-15 17:33:00,
2013-01-15 12:42:00,39.0,27.0,30.33,NNW,340,5.0,-999.0,60,-99.99,,,-99.99,,2013-01-15 17:42:00,
2013-01-15 12:53:00,39.0,27.0,30.33,North,350,5.0,-999.0,60,-99.99,,,-99.99,,2013-01-15 17:53:00,
2013-01-15 13:03:00,39.0,27.0,30.33,North,350,5.0,-999.0,60,-99.99,,,-99.99,,2013-01-15 18:03:00,
2013-01-15 13:13:00,39.0,27.0,30.31,North,10,6.0,-999.0,60,-99.99,,,-99.99,,2013-01-15 18:13:00,
2013-01-15 13:23:00,41.0,27.0,30.31,NW,320,5.0,-999.0,56,-99.99,,,-99.99,,2013-01-15 18:23:00,
2013-01-15 13:33:00,41.0,27.0,30.30,NNW,340,7.0,-999.0,56,-99.99,,,-99.99,,2013-01-15 18:33:00,
2013-01-15 13:43:00,41.0,27.0,30.30,NNW,330,6.0,-999.0,56,-99.99,,,-99.99,,2013-01-15 18:43:00,
2013-01-15 13:53:00,41.0,27.0,30.30,North,360,8.0,-999.0,56,-99.99,,,-99.99,,2013-01-15 18:53:00,
2013-01-15 14:03:00,41.0,27.0,30.30,North,360,8.0,-999.0,56,-99.99,,,-99.99,,2013-01-15 19:03:00,
2013-01-15 14:12:00,43.0,27.0,30.30,NNE,20,6.0,-999.0,52,-99.99,,,-99.99,,2013-01-15 19:12:00,
2013-01-15 14:23:00,41.0,27.0,30.30,North,360,8.0,-999.0,56,-99.99,,,-99.99,,2013-01-15 19:23:00,
2013-01-15 14:33:00,39.0,27.0,30.29,North,360,5.0,-999.0,60,-99.99,,,-99.99,,2013-01-15 19:33:00,
2013-01-15 14:42:00,39.0,27.0,30.28,North,360,7.0,-999.0,60,-99.99,,,-99.99,,2013-01-15 19:42:00,
2013-01-15 14:53:00,39.0,25.0,30.28,NNE,20,5.0,-999.0,55,-99.99,,,-99.99,,2013-01-15 19:53:00,
2013-01-15 15:03:00,39.0,25.0,30.28,NNE,20,5.0,-999.0,55,-99.99,,,-99.99,,2013-01-15 20:03:00,
2013-01-15 15:12:00,39.0,25.0,30.30,North,360,5.0,-999.0,55,-99.99,,,-99.99,,2013-01-15 20:12:00,
2013-01-15 15:23:00,39.0,25.0,30.29,NE,40,5.0,-999.0,55,-99.99,,,-99.99,,2013-01-15 20:23:00,
2013-01-15 15:33:00,39.0,27.0,30.29,NE,40,6.0,-999.0,60,-99.99,,,-99.99,,2013-01-15 20:33:00,
2013-01-15 15:43:00,39.0,27.0,30.30,NNE,30,3.0,-999.0,60,-99.99,,,-99.99,,2013-01-15 20:43:00,
2013-01-15 15:52:00,39.0,25.0,30.30,North,360,6.0,-999.0,55,-99.99,,,-99.99,,2013-01-15 20:52:00,
2013-01-15 16:03:00,39.0,25.0,30.30,North,360,6.0,-999.0,55,-99.99,,,-99.99,,2013-01-15 21:03:00,
2013-01-15 16:13:00,39.0,25.0,30.31,North,10,6.0,-999.0,55,-99.99,,,-99.99,,2013-01-15 21:13:00,
2013-01-15 16:23:00,39.0,25.0,30.31,North,360,7.0,-999.0,55,-99.99,,,-99.99,,2013-01-15 21:23:00,
2013-01-15 16:33:00,39.0,25.0,30.31,North,10,7.0,-999.0,55,-99.99,,,-99.99,,2013-01-15 21:33:00,
2013-01-15 16:43:00,39.0,25.0,30.31,North,10,6.0,-999.0,55,-99.99,,,-99.99,,2013-01-15 21:43:00,
2013-01-15 16:52:00,39.0,25.0,30.31,NNE,20,3.0,-999.0,55,-99.99,,,-99.99,,2013-01-15 21:52:00,
2013-01-15 17:03:00,39.0,25.0,30.31,NNE,20,3.0,-999.0,55,-99.99,,,-99.99,,2013-01-15 22:03:00,
2013-01-15 17:12:00,37.0,27.0,30.30,NE,50,3.0,-999.0,64,-99.99,,,-99.99,,2013-01-15 22:12:00,
2013-01-15 17:23:00,37.0,27.0,30.31,NNE,30,3.0,-999.0,64,-99.99,,,-99.99,,2013-01-15 22:23:00,
2013-01-15 17:33:00,37.0,27.0,30.31,NNE,20,3.0,-999.0,64,-99.99,,,-99.99,,2013-01-15 22:33:00,
2013-01-15 17:43:00,37.0,27.0,30.31,NNE,20,5.0,-999.0,64,-99.99,,,-99.99,,2013-01-15 22:43:00,
2013-01-15 17:52:00,37.0,27.0,30.32,NNE,20,6.0,-999.0,64,-99.99,,,-99.99,,2013-01-15 22:52:00,
2013-01-15 18:03:00,37.0,27.0,30.32,NNE,20,6.0,-999.0,64,-99.99,,,-99.99,,2013-01-15 23:03:00,
2013-01-15 18:13:00,37.0,27.0,30.32,NNE,30,5.0,-999.0,64,-99.99,,,-99.99,,2013-01-15 23:13:00,
2013-01-15 18:22:00,37.0,27.0,30.31,NNE,30,5.0,-999.0,64,-99.99,,,-99.99,,2013-01-15 23:22:00,
2013-01-15 18:33:00,36.0,27.0,30.31,NNE,30,5.0,-999.0,69,-99.99,,,-99.99,,2013-01-15 23:33:00,
2013-01-15 18:43:00,36.0,27.0,30.32,NNE,20,5.0,-999.0,69,-99.99,,,-99.99,,2013-01-15 23:43:00,
2013-01-15 18:53:00,36.0,27.0,30.32,NNE,20,3.0,-999.0,69,-99.99,,,-99.99,,2013-01-15 23:53:00,
2013-01-15 19:03:00,36.0,27.0,30.32,NNE,20,3.0,-999.0,69,-99.99,,,-99.99,,2013-01-16 00:03:00,
2013-01-15 19:12:00,36.0,27.0,30.32,North,0,0.0,-999.0,69,-99.99,,,-99.99,,2013-01-16 00:12:00,
2013-01-15 19:22:00,36.0,27.0,30.31,North,0,0.0,-999.0,69,-99.99,,,-99.99,,2013-01-16 00:22:00,
2013-01-15 19:33:00,34.0,27.0,30.31,North,0,0.0,-999.0,74,-99.99,,,-99.99,,2013-01-16 00:33:00,
2013-01-15 19:43:00,34.0,27.0,30.31,North,0,0.0,-999.0,74,-99.99,,,-99.99,,2013-01-16 00:43:00,
2013-01-15 19:52:00,34.0,28.0,30.30,North,0,0.0,-999.0,80,-99.99,,,-99.99,,2013-01-16 00:52:00,
2013-01-15 20:03:00,34.0,28.0,30.30,North,0,0.0,-999.0,80,-99.99,,,-99.99,,2013-01-16 01:03:00,
2013-01-15 20:12:00,34.0,27.0,30.29,North,0,0.0,-999.0,74,-99.99,,,-99.99,,2013-01-16 01:12:00,
2013-01-15 20:22:00,34.0,27.0,30.29,North,0,0.0,-999.0,74,-99.99,,,-99.99,,2013-01-16 01:22:00,
2013-01-15 20:33:00,34.0,27.0,30.29,North,0,0.0,-999.0,74,-99.99,,,-99.99,,2013-01-16 01:33:00,
2013-01-15 20:42:00,34.0,28.0,30.30,North,0,0.0,-999.0,80,-99.99,,,-99.99,,2013-01-16 01:42:00,
2013-01-15 20:52:00,34.0,28.0,30.30,North,0,0.0,-999.0,80,-99.99,,,-99.99,,2013-01-16 01:52:00,
2013-01-15 21:03:00,34.0,28.0,30.30,North,0,0.0,-999.0,80,-99.99,,,-99.99,,2013-01-16 02:03:00,
2013-01-15 21:12:00,34.0,28.0,30.29,North,0,0.0,-999.0,80,-99.99,,,-99.99,,2013-01-16 02:12:00,
2013-01-15 21:22:00,34.0,28.0,30.28,North,0,0.0,-999.0,80,-99.99,,,-99.99,,2013-01-16 02:22:00,
2013-01-15 21:33:00,34.0,28.0,30.28,North,0,0.0,-999.0,80,-99.99,,,-99.99,,2013-01-16 02:33:00,
2013-01-15 21:42:00,34.0,27.0,30.28,North,0,0.0,-999.0,74,-99.99,,,-99.99,,2013-01-16 02:42:00,
2013-01-15 21:52:00,34.0,28.0,30.26,North,0,0.0,-999.0,80,-99.99,,,-99.99,,2013-01-16 02:52:00,
2013-01-15 22:03:00,34.0,28.0,30.26,North,0,0.0,-999.0,80,-99.99,,,-99.99,,2013-01-16 03:03:00,
2013-01-15 22:12:00,34.0,27.0,30.27,North,0,0.0,-999.0,74,-99.99,,,-99.99,,2013-01-16 03:12:00,
2013-01-15 22:22:00,34.0,27.0,30.27,North,0,0.0,-999.0,74,-99.99,,,-99.99,,2013-01-16 03:22:00,
2013-01-15 22:33:00,34.0,28.0,30.27,North,0,0.0,-999.0,80,-99.99,,,-99.99,,2013-01-16 03:33:00,
2013-01-15 22:43:00,34.0,27.0,30.26,North,0,0.0,-999.0,74,-99.99,,,-99.99,,2013-01-16 03:43:00,
2013-01-15 22:52:00,34.0,27.0,30.26,North,0,0.0,-999.0,74,-99.99,,,-99.99,,2013-01-16 03:52:00,
2013-01-15 23:02:00,34.0,27.0,30.26,North,0,0.0,-999.0,74,-99.99,,,-99.99,,2013-01-16 04:02:00,
2013-01-15 23:12:00,34.0,28.0,30.25,NNE,30,5.0,-999.0,80,-99.99,,,-99.99,,2013-01-16 04:12:00,
2013-01-15 23:22:00,36.0,27.0,30.26,NNE,30,3.0,-999.0,69,-99.99,,,-99.99,,2013-01-16 04:22:00,
2013-01-15 23:33:00,36.0,27.0,30.26,North,0,0.0,-999.0,69,-99.99,,,-99.99,,2013-01-16 04:33:00,
2013-01-15 23:42:00,36.0,27.0,30.26,North,0,0.0,-999.0,69,-99.99,,,-99.99,,2013-01-16 04:42:00,
2013-01-15 23:52:00,36.0,27.0,30.26,North,0,0.0,-999.0,69,-99.99,,,-99.99,,2013-01-16 04:52:00,